Time;durP1;ratioP1;P1;durP2;ratioP2;P2;SDS_P1;SDS_P2;PMS_P1;PMS_P2;Temp;Humidity;BMP_temperature;BMP_pressure;BME280_temperature;BME280_humidity;BME280_pressure;Samples;Min_cycle;Max_cycle;Signal;HPM_P1;HPM_P2
2023/02/07 00:00:48;;;;;;;6.93;4.03;;;;;;;;;;6157967;23;20024;-84
2023/02/07 00:03:19;;;;;;;4.57;3.55;;;;;;;;;;6165136;23;20013;-84
2023/02/07 00:05:46;;;;;;;4.03;3.13;;;;;;;;;;6157327;23;20035;-84
2023/02/07 00:08:15;;;;;;;5.32;3.55;;;;;;;;;;6132478;23;20367;-85
2023/02/07 00:10:42;;;;;;;7.57;3.65;;;;;;;;;;6157384;23;20017;-84
2023/02/07 00:13:09;;;;;;;4.43;3.83;;;;;;;;;;6132452;23;20017;-84
2023/02/07 00:15:39;;;;;;;5.45;3.85;;;;;;;;;;6131686;23;20028;-84
2023/02/07 00:18:11;;;;;;;4.82;4.13;;;;;;;;;;6167498;23;20032;-84
2023/02/07 00:20:39;;;;;;;5.55;4.15;;;;;;;;;;6184425;23;20453;-84
2023/02/07 00:23:07;;;;;;;6.25;4.75;;;;;;;;;;6132820;23;20028;-84
2023/02/07 00:25:34;;;;;;;5.07;4.50;;;;;;;;;;6157382;23;20017;-84
2023/02/07 00:28:04;;;;;;;4.80;3.67;;;;;;;;;;6168414;23;20020;-84
2023/02/07 00:30:31;;;;;;;7.97;4.63;;;;;;;;;;6132917;23;20017;-84
2023/02/07 00:32:58;;;;;;;6.38;4.78;;;;;;;;;;6158228;23;20013;-84
2023/02/07 00:35:28;;;;;;;8.07;5.22;;;;;;;;;;6131663;23;20456;-84
2023/02/07 00:37:57;;;;;;;4.50;4.10;;;;;;;;;;6133774;23;20483;-84
2023/02/07 00:40:24;;;;;;;4.95;4.32;;;;;;;;;;6183253;23;20013;-82
2023/02/07 00:43:05;;;;;;;7.38;5.45;;;;;;;;;;6122798;23;20480;-85
2023/02/07 00:45:32;;;;;;;5.57;4.72;;;;;;;;;;6074617;23;20362;-86
2023/02/07 00:48:01;;;;;;;7.95;5.57;;;;;;;;;;6098988;23;20014;-85
2023/02/07 00:50:29;;;;;;;5.40;4.13;;;;;;;;;;6108665;23;20014;-85
2023/02/07 00:52:57;;;;;;;5.68;5.13;;;;;;;;;;6073595;23;20423;-85
2023/02/07 00:55:24;;;;;;;5.75;4.90;;;;;;;;;;6098736;23;20013;-85
2023/02/07 00:57:52;;;;;;;6.90;6.13;;;;;;;;;;6108703;23;20018;-85
2023/02/07 01:00:19;;;;;;;5.63;4.90;;;;;;;;;;6074324;23;20470;-85
2023/02/07 01:02:47;;;;;;;6.68;5.88;;;;;;;;;;6098565;23;20018;-85
2023/02/07 01:05:16;;;;;;;7.13;5.55;;;;;;;;;;6098155;23;20021;-86
2023/02/07 01:07:44;;;;;;;6.55;5.07;;;;;;;;;;6098183;23;20422;-85
2023/02/07 01:10:12;;;;;;;7.85;5.60;;;;;;;;;;6098827;23;20014;-85
2023/02/07 01:12:43;;;;;;;7.05;6.05;;;;;;;;;;6073565;23;20026;-85
2023/02/07 01:15:11;;;;;;;5.82;5.05;;;;;;;;;;6098594;23;20018;-85
2023/02/07 01:17:38;;;;;;;6.20;5.15;;;;;;;;;;6074413;23;20018;-85
2023/02/07 01:20:06;;;;;;;7.13;5.18;;;;;;;;;;6099211;23;20021;-85
2023/02/07 01:22:33;;;;;;;13.13;6.53;;;;;;;;;;6097728;23;20025;-85
2023/02/07 01:25:03;;;;;;;8.57;6.28;;;;;;;;;;6099376;23;20017;-85
2023/02/07 01:27:31;;;;;;;7.65;6.90;;;;;;;;;;6098650;23;20021;-85
2023/02/07 01:29:59;;;;;;;8.95;6.03;;;;;;;;;;6098850;23;20040;-85
2023/02/07 01:32:26;;;;;;;8.52;6.10;;;;;;;;;;6074773;23;20018;-84
2023/02/07 01:34:54;;;;;;;8.45;6.05;;;;;;;;;;6123159;23;20029;-85
2023/02/07 01:37:21;;;;;;;9.30;6.32;;;;;;;;;;6074726;23;20366;-85
2023/02/07 01:39:48;;;;;;;11.43;8.27;;;;;;;;;;6073603;23;20346;-85
2023/02/07 01:42:17;;;;;;;9.93;7.50;;;;;;;;;;6123302;23;20014;-85
2023/02/07 01:45:06;;;;;;;7.40;6.70;;;;;;;;;;6098496;23;20014;-85
2023/02/07 01:47:35;;;;;;;9.52;6.78;;;;;;;;;;6073063;23;20022;-85
2023/02/07 01:50:02;;;;;;;9.95;6.90;;;;;;;;;;6097839;23;20021;-85
2023/02/07 01:52:32;;;;;;;8.27;5.88;;;;;;;;;;6074609;23;20047;-85
2023/02/07 01:55:03;;;;;;;11.55;8.88;;;;;;;;;;6106698;23;20018;-85
2023/02/07 01:57:31;;;;;;;11.82;7.75;;;;;;;;;;6108047;23;20014;-85
2023/02/07 02:00:01;;;;;;;9.32;8.43;;;;;;;;;;6096942;23;20014;-85
2023/02/07 02:02:33;;;;;;;9.68;7.22;;;;;;;;;;6074599;23;20022;-86
2023/02/07 02:05:01;;;;;;;11.20;8.48;;;;;;;;;;6095721;23;20021;-85
2023/02/07 02:07:31;;;;;;;12.00;7.40;;;;;;;;;;6074792;23;20018;-85
2023/02/07 02:10:02;;;;;;;8.82;7.32;;;;;;;;;;6132762;23;20021;-85
2023/02/07 02:12:55;;;;;;;8.70;6.80;;;;;;;;;;6123860;23;20013;-85
2023/02/07 02:15:31;;;;;;;11.50;7.68;;;;;;;;;;6110008;23;20028;-85
2023/02/07 02:18:09;;;;;;;10.50;8.77;;;;;;;;;;6108583;23;20151;-85
2023/02/07 02:21:14;;;;;;;11.18;7.28;;;;;;;;;;6105812;23;20010;-85
2023/02/07 02:23:58;;;;;;;14.00;8.25;;;;;;;;;;6134197;23;20496;-86
2023/02/07 02:26:45;;;;;;;13.05;10.90;;;;;;;;;;6109003;23;20021;-85
2023/02/07 02:29:51;;;;;;;14.00;10.43;;;;;;;;;;6120656;23;20018;-84
2023/02/07 02:32:47;;;;;;;13.40;9.30;;;;;;;;;;6110844;23;20022;-84
2023/02/07 02:35:17;;;;;;;9.80;8.35;;;;;;;;;;6116277;23;20024;-85
2023/02/07 02:37:51;;;;;;;11.02;8.27;;;;;;;;;;6098760;23;20017;-86
2023/02/07 02:40:21;;;;;;;11.30;8.13;;;;;;;;;;6070822;23;20051;-85
2023/02/07 02:42:53;;;;;;;11.10;9.73;;;;;;;;;;6096270;23;20010;-85
2023/02/07 02:45:27;;;;;;;13.75;8.38;;;;;;;;;;6107270;23;20014;-85
2023/02/07 02:47:58;;;;;;;15.30;9.60;;;;;;;;;;6073487;23;20388;-86
2023/02/07 02:50:27;;;;;;;15.82;8.35;;;;;;;;;;6107317;23;20114;-85
2023/02/07 02:52:55;;;;;;;17.00;9.30;;;;;;;;;;6097130;23;20014;-86
2023/02/07 02:55:41;;;;;;;10.90;9.23;;;;;;;;;;6097728;23;20014;-86
2023/02/07 02:58:11;;;;;;;11.70;7.68;;;;;;;;;;6106670;23;20025;-86
2023/02/07 03:00:49;;;;;;;14.05;10.30;;;;;;;;;;6073611;23;20025;-86
2023/02/07 03:03:30;;;;;;;15.68;10.38;;;;;;;;;;6133619;23;20040;-86
2023/02/07 03:06:07;;;;;;;13.63;10.10;;;;;;;;;;6073053;23;20025;-85
2023/02/07 03:08:41;;;;;;;11.10;8.50;;;;;;;;;;6072540;23;20512;-85
2023/02/07 03:11:10;;;;;;;9.82;7.93;;;;;;;;;;6073103;23;20018;-85
2023/02/07 03:13:48;;;;;;;10.98;8.20;;;;;;;;;;6098122;23;20014;-85
2023/02/07 03:16:19;;;;;;;14.98;10.10;;;;;;;;;;6071975;23;20490;-84
2023/02/07 03:18:54;;;;;;;14.27;10.15;;;;;;;;;;6097950;23;20010;-85
2023/02/07 03:21:25;;;;;;;14.50;9.90;;;;;;;;;;6129918;23;20021;-84
2023/02/07 03:23:53;;;;;;;14.23;10.75;;;;;;;;;;6072688;23;20018;-85
2023/02/07 03:26:22;;;;;;;12.52;10.88;;;;;;;;;;6098049;23;20014;-85
2023/02/07 03:28:55;;;;;;;14.82;9.60;;;;;;;;;;6097265;23;20022;-85
2023/02/07 03:31:24;;;;;;;24.23;10.77;;;;;;;;;;6098037;23;20022;-85
2023/02/07 03:33:55;;;;;;;11.80;9.57;;;;;;;;;;6123324;23;20025;-85
2023/02/07 03:36:27;;;;;;;13.40;9.93;;;;;;;;;;6134458;23;20014;-85
2023/02/07 03:38:54;;;;;;;11.13;7.22;;;;;;;;;;6135642;23;20014;-84
2023/02/07 03:41:28;;;;;;;14.15;11.02;;;;;;;;;;6125468;23;20334;-85
2023/02/07 03:44:05;;;;;;;13.60;10.38;;;;;;;;;;6098872;23;20033;-85
2023/02/07 03:46:35;;;;;;;12.85;11.35;;;;;;;;;;6108076;23;20408;-85
2023/02/07 03:49:06;;;;;;;12.90;9.52;;;;;;;;;;6074896;23;20018;-85
2023/02/07 03:51:36;;;;;;;16.33;10.75;;;;;;;;;;6131008;23;20327;-85
2023/02/07 03:54:03;;;;;;;14.38;10.38;;;;;;;;;;6074653;23;20018;-85
2023/02/07 03:56:31;;;;;;;12.20;8.73;;;;;;;;;;6133738;23;20017;-85
2023/02/07 03:58:58;;;;;;;18.10;11.45;;;;;;;;;;6124357;23;20018;-85
2023/02/07 04:01:27;;;;;;;17.25;11.38;;;;;;;;;;6100032;23;20021;-85
2023/02/07 04:03:55;;;;;;;17.10;11.02;;;;;;;;;;6097830;23;20018;-85
2023/02/07 04:06:23;;;;;;;17.63;12.45;;;;;;;;;;6134012;23;20021;-85
2023/02/07 04:08:53;;;;;;;15.02;11.48;;;;;;;;;;6097846;23;20357;-85
2023/02/07 04:11:20;;;;;;;15.95;9.50;;;;;;;;;;6100209;23;20014;-85
2023/02/07 04:13:47;;;;;;;14.23;10.27;;;;;;;;;;6125391;23;20014;-85
2023/02/07 04:16:17;;;;;;;15.73;10.57;;;;;;;;;;6099910;23;20025;-85
2023/02/07 04:18:44;;;;;;;10.82;9.57;;;;;;;;;;6123964;23;20037;-85
2023/02/07 04:21:12;;;;;;;11.52;9.82;;;;;;;;;;6105833;23;20033;-85
2023/02/07 04:23:40;;;;;;;12.18;10.73;;;;;;;;;;6098823;23;20025;-85
2023/02/07 04:26:07;;;;;;;11.88;10.68;;;;;;;;;;6108857;23;20453;-85
2023/02/07 04:28:37;;;;;;;18.48;12.43;;;;;;;;;;6098515;23;20025;-85
2023/02/07 04:31:07;;;;;;;14.38;10.63;;;;;;;;;;6124861;23;20021;-85
2023/02/07 04:33:35;;;;;;;16.55;11.38;;;;;;;;;;6099497;23;20018;-85
2023/02/07 04:36:04;;;;;;;16.45;11.40;;;;;;;;;;6072480;23;20018;-86
2023/02/07 04:38:32;;;;;;;15.63;11.27;;;;;;;;;;6125261;23;20029;-85
2023/02/07 04:41:05;;;;;;;17.23;11.50;;;;;;;;;;6075252;23;20021;-85
2023/02/07 04:43:34;;;;;;;16.73;11.80;;;;;;;;;;6099718;23;20349;-86
2023/02/07 04:46:02;;;;;;;22.02;13.18;;;;;;;;;;6123151;23;20018;-86
2023/02/07 04:48:29;;;;;;;23.80;15.30;;;;;;;;;;6119589;23;20018;-85
2023/02/07 04:50:56;;;;;;;13.63;11.80;;;;;;;;;;6098449;23;20350;-85
2023/02/07 04:53:24;;;;;;;22.48;14.07;;;;;;;;;;6124977;23;20361;-85
2023/02/07 04:55:52;;;;;;;14.48;12.10;;;;;;;;;;6098894;23;20488;-85
2023/02/07 04:58:21;;;;;;;20.50;14.43;;;;;;;;;;6098323;23;20018;-85
2023/02/07 05:00:49;;;;;;;16.27;11.35;;;;;;;;;;6074557;23;20022;-85
2023/02/07 05:03:18;;;;;;;16.05;12.05;;;;;;;;;;6134448;23;20029;-85
2023/02/07 05:05:53;;;;;;;17.98;13.30;;;;;;;;;;6098327;23;20025;-85
2023/02/07 05:08:20;;;;;;;19.67;13.18;;;;;;;;;;6073730;23;20253;-85
2023/02/07 05:10:52;;;;;;;14.18;11.05;;;;;;;;;;6123862;23;20022;-85
2023/02/07 05:13:20;;;;;;;14.90;11.93;;;;;;;;;;6133595;23;20017;-85
2023/02/07 05:15:47;;;;;;;19.80;13.35;;;;;;;;;;6124116;23;20013;-86
2023/02/07 05:18:15;;;;;;;17.40;14.85;;;;;;;;;;6098316;23;20046;-87
2023/02/07 05:20:44;;;;;;;15.52;12.57;;;;;;;;;;6098220;23;20025;-87
2023/02/07 05:23:15;;;;;;;17.45;14.35;;;;;;;;;;6098118;23;20018;-87
2023/02/07 05:25:42;;;;;;;17.25;11.77;;;;;;;;;;6122610;23;20331;-87
2023/02/07 05:28:10;;;;;;;16.95;12.07;;;;;;;;;;6098245;23;20010;-88
2023/02/07 05:30:38;;;;;;;16.85;13.38;;;;;;;;;;6124544;23;20010;-88
2023/02/07 05:33:08;;;;;;;19.88;13.02;;;;;;;;;;6134917;23;20013;-88
2023/02/07 05:35:39;;;;;;;17.58;12.98;;;;;;;;;;6134285;23;20017;-88
2023/02/07 05:38:08;;;;;;;15.85;12.38;;;;;;;;;;6073936;23;20029;-88
2023/02/07 05:40:36;;;;;;;14.80;12.73;;;;;;;;;;6099620;23;20017;-88
2023/02/07 05:43:06;;;;;;;19.42;13.05;;;;;;;;;;6074760;23;20067;-88
2023/02/07 05:45:33;;;;;;;19.17;13.20;;;;;;;;;;6099561;23;20022;-88
2023/02/07 05:48:02;;;;;;;17.65;12.88;;;;;;;;;;6074790;23;20300;-88
2023/02/07 05:50:30;;;;;;;14.75;12.00;;;;;;;;;;6104848;23;20022;-88
2023/02/07 05:53:08;;;;;;;19.73;14.20;;;;;;;;;;6089894;23;20034;-88
2023/02/07 05:55:36;;;;;;;16.58;10.57;;;;;;;;;;6091186;23;20450;-88
2023/02/07 05:58:05;;;;;;;18.80;12.93;;;;;;;;;;6116451;23;20244;-88
2023/02/07 06:00:33;;;;;;;18.08;14.38;;;;;;;;;;6099269;23;20022;-88
2023/02/07 06:03:02;;;;;;;14.35;10.77;;;;;;;;;;6065780;23;20018;-88
2023/02/07 06:05:32;;;;;;;17.40;12.13;;;;;;;;;;6067278;23;20784;-88
2023/02/07 06:07:59;;;;;;;15.65;11.82;;;;;;;;;;6064838;23;20466;-88
2023/02/07 06:10:26;;;;;;;15.85;11.88;;;;;;;;;;6089472;23;20048;-88
2023/02/07 06:12:53;;;;;;;14.38;12.10;;;;;;;;;;6087203;23;20049;-88
2023/02/07 06:15:21;;;;;;;25.58;14.30;;;;;;;;;;6099305;23;20345;-88
2023/02/07 06:17:48;;;;;;;19.02;12.68;;;;;;;;;;6088878;23;20014;-89
2023/02/07 06:20:19;;;;;;;15.60;13.77;;;;;;;;;;6089692;23;20537;-89
2023/02/07 06:22:46;;;;;;;14.85;12.68;;;;;;;;;;6095002;23;20339;-88
2023/02/07 06:25:14;;;;;;;24.17;13.77;;;;;;;;;;6123414;23;20018;-89
2023/02/07 06:27:41;;;;;;;18.52;13.68;;;;;;;;;;6123407;23;20473;-89
2023/02/07 06:30:12;;;;;;;18.77;13.10;;;;;;;;;;6118824;23;20010;-89
2023/02/07 06:32:41;;;;;;;18.83;14.05;;;;;;;;;;6114727;23;20014;-89
2023/02/07 06:35:09;;;;;;;19.45;13.45;;;;;;;;;;6089116;23;20063;-88
2023/02/07 06:37:40;;;;;;;17.80;12.23;;;;;;;;;;6088669;23;20018;-88
2023/02/07 06:40:08;;;;;;;17.85;12.50;;;;;;;;;;6065807;23;20029;-88
2023/02/07 06:42:38;;;;;;;23.63;15.02;;;;;;;;;;6155204;23;20476;-83
2023/02/07 06:45:09;;;;;;;18.48;14.35;;;;;;;;;;6177123;23;20043;-83
2023/02/07 06:47:38;;;;;;;17.35;12.32;;;;;;;;;;6172096;23;20020;-83
2023/02/07 06:50:06;;;;;;;15.80;14.05;;;;;;;;;;6123759;23;20032;-83
2023/02/07 06:52:33;;;;;;;29.30;14.52;;;;;;;;;;6147433;23;20017;-84
2023/02/07 06:55:02;;;;;;;21.38;15.35;;;;;;;;;;6148120;23;20020;-83
2023/02/07 06:57:31;;;;;;;17.35;14.38;;;;;;;;;;6185725;23;20029;-83
2023/02/07 06:59:58;;;;;;;21.55;15.13;;;;;;;;;;6149588;23;20025;-83
2023/02/07 07:02:26;;;;;;;14.73;12.13;;;;;;;;;;6174471;23;20288;-83
2023/02/07 07:04:55;;;;;;;17.77;13.90;;;;;;;;;;6148792;23;20024;-84
2023/02/07 07:07:22;;;;;;;20.00;12.15;;;;;;;;;;6148348;23;20027;-83
2023/02/07 07:09:50;;;;;;;17.60;12.52;;;;;;;;;;6174640;23;20352;-83
2023/02/07 07:12:21;;;;;;;16.73;11.43;;;;;;;;;;6175087;23;20036;-83
2023/02/07 07:14:48;;;;;;;17.48;13.15;;;;;;;;;;6183761;23;20013;-84
2023/02/07 07:17:18;;;;;;;15.68;12.00;;;;;;;;;;6176668;23;20024;-84
2023/02/07 07:19:47;;;;;;;21.00;13.45;;;;;;;;;;6175555;23;20020;-84
2023/02/07 07:22:14;;;;;;;17.00;13.30;;;;;;;;;;6148309;23;20267;-84
2023/02/07 07:24:42;;;;;;;15.75;10.57;;;;;;;;;;6157514;23;20476;-84
2023/02/07 07:27:09;;;;;;;17.58;12.23;;;;;;;;;;6174957;23;20017;-84
2023/02/07 07:29:40;;;;;;;22.75;14.15;;;;;;;;;;6174409;23;20013;-83
2023/02/07 07:32:10;;;;;;;17.20;12.35;;;;;;;;;;6174463;23;20013;-84
2023/02/07 07:34:37;;;;;;;14.82;10.32;;;;;;;;;;6174558;23;20017;-84
2023/02/07 07:37:07;;;;;;;25.88;13.68;;;;;;;;;;6123719;23;20032;-83
2023/02/07 07:39:36;;;;;;;21.50;16.50;;;;;;;;;;6174358;23;20360;-84
2023/02/07 07:42:06;;;;;;;15.57;11.10;;;;;;;;;;6148463;23;20024;-85
2023/02/07 07:44:56;;;;;;;21.83;12.57;;;;;;;;;;6149641;23;20025;-83
2023/02/07 07:47:26;;;;;;;19.17;12.95;;;;;;;;;;6147590;23;20048;-83
2023/02/07 07:49:54;;;;;;;15.85;10.65;;;;;;;;;;6151229;23;20021;-83
2023/02/07 07:52:21;;;;;;;12.88;10.90;;;;;;;;;;6175737;23;20017;-83
2023/02/07 07:54:51;;;;;;;21.35;11.65;;;;;;;;;;6148983;23;20024;-84
2023/02/07 07:57:21;;;;;;;17.98;13.18;;;;;;;;;;6175785;23;20028;-83
2023/02/07 07:59:50;;;;;;;17.52;12.45;;;;;;;;;;6176044;23;20028;-83
2023/02/07 08:02:21;;;;;;;14.35;9.90;;;;;;;;;;6147618;23;20360;-83
2023/02/07 08:04:51;;;;;;;15.20;10.52;;;;;;;;;;6185678;23;20859;-84
2023/02/07 08:07:21;;;;;;;16.65;12.38;;;;;;;;;;6149627;23;20379;-84
2023/02/07 08:09:48;;;;;;;16.00;11.40;;;;;;;;;;6148643;23;20028;-85
2023/02/07 08:12:15;;;;;;;18.77;12.02;;;;;;;;;;6148745;23;20017;-84
2023/02/07 08:14:43;;;;;;;14.35;10.10;;;;;;;;;;6148186;23;20024;-84
2023/02/07 08:17:10;;;;;;;17.35;12.10;;;;;;;;;;6127675;23;20021;-85
2023/02/07 08:19:38;;;;;;;17.70;10.38;;;;;;;;;;6193532;23;20017;-86
2023/02/07 08:22:06;;;;;;;13.05;10.55;;;;;;;;;;6184432;23;20009;-84
2023/02/07 08:24:38;;;;;;;10.25;8.05;;;;;;;;;;6202584;23;20011;-84
2023/02/07 08:27:10;;;;;;;9.82;8.77;;;;;;;;;;6221657;23;20048;-84
2023/02/07 08:29:41;;;;;;;18.48;11.05;;;;;;;;;;6224084;23;20061;-84
2023/02/07 08:32:09;;;;;;;13.73;9.23;;;;;;;;;;6174639;23;20348;-84
2023/02/07 08:34:40;;;;;;;12.23;10.68;;;;;;;;;;6135111;23;20028;-84
2023/02/07 08:37:10;;;;;;;13.85;11.38;;;;;;;;;;6158574;23;20025;-84
2023/02/07 08:39:37;;;;;;;14.15;10.48;;;;;;;;;;6158470;23;20021;-84
2023/02/07 08:42:06;;;;;;;15.23;10.57;;;;;;;;;;6157121;23;20017;-84
2023/02/07 08:44:37;;;;;;;15.60;9.73;;;;;;;;;;6194259;23;20013;-84
2023/02/07 08:47:06;;;;;;;14.68;11.55;;;;;;;;;;6156906;23;20344;-84
2023/02/07 08:49:33;;;;;;;12.32;10.52;;;;;;;;;;6158238;23;20020;-84
2023/02/07 08:52:02;;;;;;;14.98;9.05;;;;;;;;;;6129075;23;20024;-84
2023/02/07 08:54:32;;;;;;;11.30;9.52;;;;;;;;;;6183988;23;20021;-84
2023/02/07 08:57:01;;;;;;;14.23;10.77;;;;;;;;;;6156327;23;20024;-84
2023/02/07 08:59:29;;;;;;;10.95;9.52;;;;;;;;;;6185286;23;20445;-84
2023/02/07 09:01:58;;;;;;;15.88;11.77;;;;;;;;;;6184626;23;20353;-85
2023/02/07 09:04:26;;;;;;;17.58;10.43;;;;;;;;;;6133737;23;20047;-84
2023/02/07 09:06:53;;;;;;;12.02;10.13;;;;;;;;;;6157901;23;20036;-85
2023/02/07 09:09:24;;;;;;;16.58;11.90;;;;;;;;;;6184107;23;20020;-84
2023/02/07 09:11:52;;;;;;;13.85;11.25;;;;;;;;;;6182347;23;20028;-85
2023/02/07 09:14:19;;;;;;;13.77;11.63;;;;;;;;;;6185027;23;20013;-85
2023/02/07 09:16:49;;;;;;;15.63;11.45;;;;;;;;;;6184295;23;20369;-85
2023/02/07 09:19:16;;;;;;;17.92;11.30;;;;;;;;;;6158515;23;20349;-85
2023/02/07 09:21:46;;;;;;;12.90;10.13;;;;;;;;;;6156752;23;20021;-85
2023/02/07 09:24:13;;;;;;;14.90;10.75;;;;;;;;;;6157368;23;20020;-85
2023/02/07 09:26:42;;;;;;;13.63;9.45;;;;;;;;;;6184475;23;20014;-85
2023/02/07 09:29:14;;;;;;;15.88;10.52;;;;;;;;;;6168611;23;20397;-85
2023/02/07 09:31:44;;;;;;;12.98;10.68;;;;;;;;;;6190089;23;20352;-85
2023/02/07 09:34:12;;;;;;;11.95;10.63;;;;;;;;;;6183806;23;20013;-85
2023/02/07 09:36:43;;;;;;;11.77;9.93;;;;;;;;;;6157545;23;20017;-86
2023/02/07 09:39:10;;;;;;;15.65;10.63;;;;;;;;;;6183605;23;20468;-85
2023/02/07 09:41:43;;;;;;;12.50;9.95;;;;;;;;;;6156187;23;20013;-85
2023/02/07 09:44:15;;;;;;;15.32;10.52;;;;;;;;;;6168249;23;20009;-85
2023/02/07 09:46:46;;;;;;;;;;;;;;;;;;6194440;23;20017;-86
2023/02/07 09:49:22;;;;;;;11.15;9.43;;;;;;;;;;6158701;23;19943;-85
2023/02/07 09:51:51;;;;;;;13.65;10.05;;;;;;;;;;6161717;23;20020;-85
2023/02/07 09:54:24;;;;;;;13.88;10.57;;;;;;;;;;6157787;23;20456;-85
2023/02/07 09:56:55;;;;;;;12.00;9.10;;;;;;;;;;6193952;23;20017;-85
2023/02/07 09:59:27;;;;;;;16.48;11.75;;;;;;;;;;6159163;23;20018;-85
2023/02/07 10:01:58;;;;;;;14.57;10.80;;;;;;;;;;6157891;23;20017;-85
2023/02/07 10:04:30;;;;;;;14.57;11.88;;;;;;;;;;6158371;23;20013;-85
2023/02/07 10:06:58;;;;;;;17.80;10.60;;;;;;;;;;6132987;23;20021;-86
2023/02/07 10:09:30;;;;;;;20.65;10.98;;;;;;;;;;6168185;23;20020;-85
2023/02/07 10:12:05;;;;;;;14.65;12.02;;;;;;;;;;6163262;23;20017;-86
2023/02/07 10:14:56;;;;;;;12.02;9.80;;;;;;;;;;6133394;23;20021;-85
2023/02/07 10:17:40;;;;;;;13.35;10.85;;;;;;;;;;6157291;23;20017;-85
2023/02/07 10:20:26;;;;;;;14.95;10.25;;;;;;;;;;6183059;23;20021;-85
2023/02/07 10:23:01;;;;;;;17.13;10.88;;;;;;;;;;6186108;23;20009;-86
2023/02/07 10:25:34;;;;;;;14.65;9.35;;;;;;;;;;6193092;23;20449;-86
2023/02/07 10:28:27;;;;;;;13.57;10.13;;;;;;;;;;6192145;23;20013;-85
2023/02/07 10:31:01;;;;;;;11.10;8.10;;;;;;;;;;6155213;23;20032;-85
2023/02/07 10:33:31;;;;;;;13.00;9.73;;;;;;;;;;6185433;23;20009;-86
2023/02/07 10:36:02;;;;;;;14.77;10.27;;;;;;;;;;6149171;23;20024;-85
2023/02/07 10:38:33;;;;;;;15.73;10.10;;;;;;;;;;6176826;23;20011;-85
2023/02/07 10:41:08;;;;;;;16.92;10.57;;;;;;;;;;6213254;23;20023;-85
2023/02/07 10:43:37;;;;;;;19.02;12.60;;;;;;;;;;6160007;23;20343;-86
2023/02/07 10:46:09;;;;;;;18.65;14.65;;;;;;;;;;6185478;23;20040;-85
2023/02/07 10:48:37;;;;;;;13.23;9.65;;;;;;;;;;6150054;23;20017;-85
2023/02/07 10:51:18;;;;;;;14.38;10.20;;;;;;;;;;6184403;23;20032;-85
2023/02/07 10:53:47;;;;;;;11.93;8.52;;;;;;;;;;6147916;23;20069;-85
2023/02/07 10:56:17;;;;;;;16.58;9.27;;;;;;;;;;6175364;23;20024;-85
2023/02/07 10:58:45;;;;;;;14.85;11.45;;;;;;;;;;6185908;23;20345;-85
2023/02/07 11:01:20;;;;;;;14.43;9.77;;;;;;;;;;6180576;23;20020;-85
2023/02/07 11:03:48;;;;;;;13.68;10.75;;;;;;;;;;6182519;23;20420;-85
2023/02/07 11:06:25;;;;;;;17.42;9.98;;;;;;;;;;6156535;23;20077;-84
2023/02/07 11:09:12;;;;;;;15.75;10.25;;;;;;;;;;6156818;23;20040;-85
2023/02/07 11:11:47;;;;;;;15.30;9.43;;;;;;;;;;6188326;23;20024;-85
2023/02/07 11:14:25;;;;;;;14.00;10.30;;;;;;;;;;6192765;23;20016;-85
2023/02/07 11:16:53;;;;;;;13.13;9.73;;;;;;;;;;6165262;23;20028;-85
2023/02/07 11:19:25;;;;;;;13.43;9.30;;;;;;;;;;6193070;23;20017;-85
2023/02/07 11:21:55;;;;;;;11.25;7.93;;;;;;;;;;6155435;23;20457;-85
2023/02/07 11:24:27;;;;;;;14.85;10.13;;;;;;;;;;6193243;23;20009;-85
2023/02/07 11:26:57;;;;;;;12.75;10.05;;;;;;;;;;6154671;23;20028;-85
2023/02/07 11:29:30;;;;;;;11.48;8.80;;;;;;;;;;6192172;23;20021;-84
2023/02/07 11:31:59;;;;;;;12.90;8.75;;;;;;;;;;6154192;23;20025;-84
2023/02/07 11:34:36;;;;;;;12.07;8.80;;;;;;;;;;6131721;23;20024;-85
2023/02/07 11:37:19;;;;;;;12.98;9.73;;;;;;;;;;6165246;23;20028;-84
2023/02/07 11:39:47;;;;;;;10.88;8.73;;;;;;;;;;6166447;23;20013;-85
2023/02/07 11:42:18;;;;;;;10.40;9.20;;;;;;;;;;6130440;23;20089;-84
2023/02/07 11:44:48;;;;;;;11.43;8.40;;;;;;;;;;6166832;23;20013;-84
2023/02/07 11:47:18;;;;;;;10.48;8.98;;;;;;;;;;6182187;23;20020;-84
2023/02/07 11:49:49;;;;;;;13.35;9.52;;;;;;;;;;6179628;23;20060;-84
2023/02/07 11:52:16;;;;;;;12.60;9.50;;;;;;;;;;6181382;23;20014;-84
2023/02/07 11:54:50;;;;;;;13.70;9.07;;;;;;;;;;6131285;23;20017;-84
2023/02/07 11:57:18;;;;;;;16.00;11.52;;;;;;;;;;6181996;23;20348;-84
2023/02/07 11:59:49;;;;;;;11.25;8.30;;;;;;;;;;6133529;23;20017;-83
2023/02/07 12:02:20;;;;;;;11.55;8.93;;;;;;;;;;6162240;23;20013;-84
2023/02/07 12:04:47;;;;;;;13.73;9.52;;;;;;;;;;6158622;23;20017;-84
2023/02/07 12:07:19;;;;;;;14.68;9.55;;;;;;;;;;6183642;23;20017;-84
2023/02/07 12:09:48;;;;;;;11.80;7.65;;;;;;;;;;6157223;23;20024;-84
2023/02/07 12:12:20;;;;;;;10.25;7.65;;;;;;;;;;6187370;23;20017;-84
2023/02/07 12:14:51;;;;;;;8.50;6.65;;;;;;;;;;6194779;23;20013;-84
2023/02/07 12:17:32;;;;;;;10.02;7.28;;;;;;;;;;6169160;23;20345;-84
2023/02/07 12:20:04;;;;;;;9.52;7.75;;;;;;;;;;6155221;23;20349;-84
2023/02/07 12:22:36;;;;;;;10.68;8.63;;;;;;;;;;6157268;23;20021;-84
2023/02/07 12:25:09;;;;;;;10.85;8.38;;;;;;;;;;6166679;23;20017;-83
2023/02/07 12:27:41;;;;;;;12.80;8.55;;;;;;;;;;6184943;23;20017;-84
2023/02/07 12:30:14;;;;;;;14.43;9.65;;;;;;;;;;6194275;23;20013;-84
2023/02/07 12:32:47;;;;;;;15.88;8.10;;;;;;;;;;6186255;23;20013;-84
2023/02/07 12:35:20;;;;;;;13.77;10.00;;;;;;;;;;6133314;23;20337;-84
2023/02/07 12:37:55;;;;;;;10.50;7.45;;;;;;;;;;6184702;23;20013;-84
2023/02/07 12:40:30;;;;;;;11.93;8.18;;;;;;;;;;6158075;23;20335;-84
2023/02/07 14:21:01;;;;;;;9.80;7.93;;;;;;;;;;6155008;23;20014;-91
2023/02/07 14:23:49;;;;;;;15.93;10.20;;;;;;;;;;6097594;23;20354;-90
2023/02/07 14:26:42;;;;;;;11.57;8.70;;;;;;;;;;6135140;23;20018;-90
2023/02/07 14:30:00;;;;;;;11.52;8.93;;;;;;;;;;6134032;23;20010;-90
2023/02/07 14:32:38;;;;;;;11.27;7.40;;;;;;;;;;6098308;23;20366;-91
2023/02/07 14:35:32;;;;;;;10.50;8.55;;;;;;;;;;6134521;23;20014;-91
2023/02/07 14:38:12;;;;;;;9.95;8.20;;;;;;;;;;6097924;23;20022;-91
2023/02/07 14:41:04;;;;;;;12.00;7.97;;;;;;;;;;6109128;23;20446;-91
2023/02/07 14:43:40;;;;;;;8.60;6.88;;;;;;;;;;6067755;23;20018;-90
2023/02/07 14:46:11;;;;;;;13.93;8.95;;;;;;;;;;6098859;23;20488;-90
2023/02/07 14:48:48;;;;;;;13.15;8.15;;;;;;;;;;6096858;23;20021;-91
2023/02/07 14:51:20;;;;;;;11.32;8.27;;;;;;;;;;6133256;23;20361;-91
2023/02/07 14:53:57;;;;;;;10.73;7.95;;;;;;;;;;6107738;23;20354;-90
2023/02/07 14:56:31;;;;;;;8.75;7.95;;;;;;;;;;6134913;23;20014;-91
2023/02/07 14:58:59;;;;;;;9.88;7.70;;;;;;;;;;6098073;23;20032;-91
2023/02/07 15:01:26;;;;;;;10.00;7.07;;;;;;;;;;6124578;23;20014;-91
2023/02/07 16:14:54;;;;;;;8.38;6.68;;;;;;;;;;6153765;23;20017;-90
2023/02/07 16:17:23;;;;;;;11.02;8.43;;;;;;;;;;6128105;23;20018;-90
2023/02/07 16:19:50;;;;;;;10.35;8.55;;;;;;;;;;6153229;23;20020;-90
2023/02/07 16:22:21;;;;;;;18.08;9.13;;;;;;;;;;6113555;23;20025;-90
2023/02/07 16:24:50;;;;;;;11.57;8.10;;;;;;;;;;6132977;23;20029;-90
2023/02/07 16:27:22;;;;;;;9.90;7.85;;;;;;;;;;6124524;23;20021;-90
2023/02/07 16:29:50;;;;;;;16.85;9.57;;;;;;;;;;6097877;23;20037;-90
2023/02/07 16:32:20;;;;;;;9.10;7.05;;;;;;;;;;6128102;23;20037;-90
2023/02/07 16:34:47;;;;;;;10.90;7.60;;;;;;;;;;6124603;23;20010;-90
2023/02/07 16:37:15;;;;;;;12.60;7.72;;;;;;;;;;6123131;23;20018;-89
2023/02/07 16:39:42;;;;;;;11.70;8.07;;;;;;;;;;6096751;23;20036;-90
2023/02/07 16:42:14;;;;;;;15.27;8.23;;;;;;;;;;6128311;23;20029;-90
2023/02/07 16:44:41;;;;;;;10.27;8.88;;;;;;;;;;6075397;23;20018;-90
2023/02/07 16:47:09;;;;;;;11.13;8.77;;;;;;;;;;6124558;23;20010;-90
2023/02/07 16:49:38;;;;;;;13.98;9.85;;;;;;;;;;6073991;23;20018;-89
2023/02/07 16:52:06;;;;;;;13.40;8.45;;;;;;;;;;6122927;23;20018;-89
2023/02/07 16:54:33;;;;;;;11.85;9.10;;;;;;;;;;6109122;23;20018;-89
2023/02/07 16:57:03;;;;;;;13.45;8.88;;;;;;;;;;6099116;23;20022;-90
2023/02/07 16:59:30;;;;;;;10.00;8.93;;;;;;;;;;6137071;23;20014;-90
2023/02/07 17:01:57;;;;;;;10.18;8.15;;;;;;;;;;6100959;23;20029;-90
2023/02/07 17:04:25;;;;;;;13.60;8.15;;;;;;;;;;6099384;23;20434;-90
2023/02/07 17:06:53;;;;;;;15.55;7.47;;;;;;;;;;6121515;23;20018;-90
2023/02/07 17:09:22;;;;;;;13.43;8.85;;;;;;;;;;6099058;23;20021;-90
2023/02/07 17:11:50;;;;;;;9.63;8.18;;;;;;;;;;6099286;23;20018;-89
2023/02/07 17:14:18;;;;;;;10.73;8.65;;;;;;;;;;6098300;23;20021;-89
2023/02/07 17:16:45;;;;;;;12.85;8.60;;;;;;;;;;6125395;23;20041;-89
2023/02/07 17:19:17;;;;;;;10.27;8.63;;;;;;;;;;6100032;23;20342;-89
2023/02/07 17:21:44;;;;;;;9.63;7.35;;;;;;;;;;6075264;23;20335;-89
2023/02/07 17:24:13;;;;;;;14.02;10.02;;;;;;;;;;6097239;23;20014;-88
2023/02/07 17:42:20;;;;;;;12.85;8.10;;;;;;;;;;5783552;24;20058;-89
2023/02/07 17:44:48;;;;;;;11.68;9.32;;;;;;;;;;6001524;23;20385;-89
2023/02/07 17:47:15;;;;;;;9.98;8.15;;;;;;;;;;6136285;23;20017;-89
2023/02/07 17:49:42;;;;;;;12.70;8.45;;;;;;;;;;6135137;23;20023;-89
2023/02/07 17:52:12;;;;;;;11.38;7.97;;;;;;;;;;6125528;23;20021;-89